Time;durP1;ratioP1;P1;durP2;ratioP2;P2;SDS_P1;SDS_P2;PMS_P1;PMS_P2;Temp;Humidity;BMP_temperature;BMP_pressure;BME280_temperature;BME280_humidity;BME280_pressure;Samples;Min_cycle;Max_cycle;Signal;HPM_P1;HPM_P2
2022/08/05 00:02:13;;;;;;;9.10;6.97;;;;;;;20.03;68.59;100804.84;1744777;80;25747;-77
2022/08/05 00:04:39;;;;;;;11.48;7.03;;;;;;;20.04;68.69;100806.51;1751272;80;27885;-77
2022/08/05 00:07:05;;;;;;;12.78;7.10;;;;;;;20.04;68.69;100805.95;1724342;81;25967;-77
2022/08/05 00:09:32;;;;;;;7.70;6.28;;;;;;;20.04;68.53;100809.23;1730258;81;25996;-78
2022/08/05 00:11:58;;;;;;;8.38;7.58;;;;;;;20.04;68.57;100803.23;1744890;80;25781;-75
2022/08/05 00:14:24;;;;;;;10.18;6.90;;;;;;;20.03;68.49;100804.31;1716308;81;26020;-77
2022/08/05 00:16:50;;;;;;;9.85;7.12;;;;;;;20.03;68.36;100803.48;1721384;82;28280;-79
2022/08/05 00:19:17;;;;;;;11.18;6.85;;;;;;;20.03;68.43;100807.56;1744802;80;26145;-77
2022/08/05 00:21:43;;;;;;;16.20;7.25;;;;;;;20.04;68.43;100805.95;1747242;80;25819;-78
2022/08/05 00:24:09;;;;;;;7.80;6.03;;;;;;;20.07;68.34;100799.20;1740459;81;25893;-77
2022/08/05 00:26:35;;;;;;;7.67;5.97;;;;;;;20.04;68.30;100797.80;1749970;81;25788;-77
2022/08/05 00:29:03;;;;;;;7.60;6.28;;;;;;;20.03;68.32;100796.69;1746131;81;27880;-76
2022/08/05 00:31:30;;;;;;;7.17;5.62;;;;;;;20.03;68.35;100796.69;1745759;81;25277;-77
2022/08/05 00:33:56;;;;;;;7.17;6.30;;;;;;;20.02;68.27;100801.30;1746878;80;26129;-77
2022/08/05 00:36:23;;;;;;;11.08;5.95;;;;;;;20.01;68.36;100796.94;1743682;80;25881;-76
2022/08/05 00:38:50;;;;;;;7.55;5.92;;;;;;;20.03;68.47;100796.69;1746345;81;25989;-77
2022/08/05 00:41:29;;;;;;;8.23;6.53;;;;;;;20.02;68.33;100789.61;1742310;81;28325;-77
2022/08/05 00:43:56;;;;;;;9.93;6.80;;;;;;;19.99;68.36;100791.72;1747674;81;25722;-76
2022/08/05 00:46:23;;;;;;;9.38;6.70;;;;;;;19.98;68.48;100791.98;1747798;80;25876;-77
2022/08/05 00:48:50;;;;;;;11.83;6.33;;;;;;;20.00;68.65;100794.75;1749141;80;25739;-77
2022/08/05 00:51:21;;;;;;;10.68;6.22;;;;;;;20.04;68.78;100797.80;1722390;81;25305;-77
2022/08/05 00:53:49;;;;;;;9.38;7.40;;;;;;;20.05;68.72;100796.74;1720715;81;27445;-77
2022/08/05 00:56:16;;;;;;;12.90;7.72;;;;;;;20.04;68.71;100791.55;1746798;80;25800;-78
2022/08/05 00:58:43;;;;;;;10.48;6.80;;;;;;;20.05;68.79;100791.83;1734501;81;25863;-77
2022/08/05 01:01:14;;;;;;;8.45;6.60;;;;;;;20.07;68.92;100790.52;1741715;81;26382;-77
2022/08/05 01:03:41;;;;;;;7.25;6.37;;;;;;;20.10;68.95;100788.69;1743703;81;33038;-77
2022/08/05 01:06:09;;;;;;;12.58;6.87;;;;;;;20.14;68.97;100789.84;1731266;81;27468;-77
2022/08/05 01:08:36;;;;;;;7.33;6.62;;;;;;;20.12;68.94;100777.03;1720112;81;25780;-78
2022/08/05 01:11:10;;;;;;;10.55;6.62;;;;;;;20.11;69.03;100786.77;1730931;80;25985;-77
2022/08/05 01:14:00;;;;;;;10.90;6.50;;;;;;;20.09;68.99;100778.86;1744707;80;25805;-76
2022/08/05 01:17:05;;;;;;;9.23;6.22;;;;;;;20.09;69.09;100779.39;1750562;81;25944;-77
2022/08/05 01:19:54;;;;;;;10.43;6.58;;;;;;;20.10;69.09;100773.73;1757835;81;27454;-76
2022/08/05 01:22:26;;;;;;;8.68;6.50;;;;;;;20.10;69.23;100770.17;1744502;81;25788;-77
2022/08/05 01:25:16;;;;;;;8.73;6.37;;;;;;;20.11;69.27;100773.17;1727088;81;25957;-76
2022/08/05 01:27:57;;;;;;;9.18;6.22;;;;;;;20.11;69.35;100775.89;1732015;81;25827;-76
2022/08/05 01:30:28;;;;;;;8.45;7.03;;;;;;;20.10;69.28;100775.09;1713290;81;25856;-75
2022/08/05 01:32:57;;;;;;;8.98;6.42;;;;;;;20.10;69.28;100779.17;1736161;81;27942;-76
2022/08/05 01:35:28;;;;;;;9.70;6.45;;;;;;;20.11;69.54;100779.97;1727477;81;25875;-76
2022/08/05 01:37:57;;;;;;;10.15;6.80;;;;;;;20.10;69.53;100768.28;1715549;81;25960;-77
2022/08/05 01:40:28;;;;;;;9.55;6.55;;;;;;;20.10;69.51;100772.89;1736381;81;25839;-77
2022/08/05 01:42:57;;;;;;;8.00;6.72;;;;;;;20.08;69.71;100773.12;1711976;82;26433;-76
2022/08/05 01:45:25;;;;;;;8.78;6.10;;;;;;;20.07;69.77;100770.13;1730752;81;28001;-77
2022/08/05 01:47:53;;;;;;;9.35;5.85;;;;;;;20.08;69.81;100769.59;1730528;81;25858;-76
2022/08/05 01:50:28;;;;;;;10.32;6.70;;;;;;;20.09;69.83;100763.91;1726770;81;26432;-76
2022/08/05 01:53:02;;;;;;;7.35;5.70;;;;;;;20.09;69.82;100763.91;1705546;82;27328;-77
2022/08/05 01:55:32;;;;;;;10.40;6.28;;;;;;;20.11;69.89;100766.37;1721921;81;25797;-77
2022/08/05 01:58:01;;;;;;;14.47;6.70;;;;;;;20.13;69.84;100758.79;1729452;81;27523;-77
2022/08/05 02:00:29;;;;;;;9.08;6.53;;;;;;;20.15;69.94;100754.76;1739678;80;25756;-79
2022/08/05 02:03:13;;;;;;;7.65;6.10;;;;;;;20.16;69.93;100758.31;1738489;80;25709;-76
2022/08/05 02:05:42;;;;;;;9.95;5.70;;;;;;;20.14;69.94;100755.84;1743322;80;25933;-77
2022/08/05 02:08:08;;;;;;;7.75;6.15;;;;;;;20.15;70.06;100761.56;1715119;81;26031;-77
2022/08/05 02:10:42;;;;;;;10.72;6.60;;;;;;;20.13;70.03;100761.51;1716989;81;27456;-77
2022/08/05 02:13:16;;;;;;;7.60;6.60;;;;;;;20.14;70.18;100755.02;1711539;81;25982;-77
2022/08/05 02:16:12;;;;;;;9.95;6.65;;;;;;;20.14;70.21;100746.86;1751644;80;27625;-77
2022/08/05 02:18:43;;;;;;;10.10;7.35;;;;;;;20.15;70.19;100753.40;1720501;81;25839;-78
2022/08/05 02:21:18;;;;;;;8.53;6.87;;;;;;;20.15;70.21;100743.88;1733957;80;25764;-77
2022/08/05 02:23:49;;;;;;;8.63;7.00;;;;;;;20.14;70.25;100738.17;1742434;80;27451;-77
2022/08/05 02:26:21;;;;;;;8.43;6.67;;;;;;;20.15;70.25;100732.17;1724991;81;25804;-78
2022/08/05 02:28:49;;;;;;;7.95;7.15;;;;;;;20.13;70.15;100734.31;1742306;80;25852;-78
2022/08/05 02:31:24;;;;;;;9.85;7.00;;;;;;;20.11;70.19;100729.13;1730206;81;26482;-78
2022/08/05 02:34:02;;;;;;;11.18;6.70;;;;;;;20.10;70.23;100728.02;1731150;81;26271;-76
2022/08/05 02:36:31;;;;;;;9.08;6.85;;;;;;;20.10;70.30;100728.02;1741807;80;27422;-77
2022/08/05 02:39:01;;;;;;;9.53;6.83;;;;;;;20.10;70.41;100734.30;1740305;80;26586;-78
2022/08/05 02:41:29;;;;;;;9.73;6.45;;;;;;;20.07;70.49;100730.69;1742478;80;26573;-77
2022/08/05 02:43:58;;;;;;;10.32;6.70;;;;;;;20.04;70.44;100735.81;1733890;80;26516;-76
2022/08/05 02:46:27;;;;;;;9.68;6.75;;;;;;;20.02;70.57;100728.43;1741692;80;25819;-77
2022/08/05 02:48:55;;;;;;;10.50;6.75;;;;;;;20.02;70.52;100732.52;1725676;81;28545;-76
2022/08/05 02:51:23;;;;;;;11.53;7.37;;;;;;;20.00;70.50;100730.84;1756720;80;25830;-77
2022/08/05 02:53:50;;;;;;;10.53;6.53;;;;;;;19.98;70.54;100730.27;1715080;82;26547;-76
2022/08/05 02:56:16;;;;;;;11.25;6.97;;;;;;;19.98;70.70;100728.08;1728449;81;25799;-77
2022/08/05 02:58:44;;;;;;;8.40;7.50;;;;;;;19.98;70.88;100730.27;1722892;81;25915;-77
2022/08/05 03:01:25;;;;;;;9.75;7.22;;;;;;;19.92;70.73;100728.53;1733039;80;27443;-77
2022/08/05 03:04:01;;;;;;;12.55;7.65;;;;;;;19.89;70.97;100720.85;1709266;81;25904;-77
2022/08/05 03:06:30;;;;;;;10.68;7.65;;;;;;;19.84;71.14;100722.14;1748580;81;25910;-77
2022/08/05 03:08:58;;;;;;;11.00;6.55;;;;;;;19.86;71.25;100727.33;1734157;81;25822;-75
2022/08/05 03:11:26;;;;;;;7.35;6.62;;;;;;;19.88;71.37;100719.75;1734829;81;25805;-77
2022/08/05 03:13:53;;;;;;;10.88;6.53;;;;;;;19.88;71.34;100727.91;1727392;81;27485;-78
2022/08/05 03:16:20;;;;;;;9.65;7.00;;;;;;;19.89;71.44;100724.09;1734898;81;26075;-77
2022/08/05 03:18:47;;;;;;;9.40;7.55;;;;;;;19.87;71.38;100724.35;1742767;81;25806;-78
2022/08/05 03:21:14;;;;;;;9.30;7.55;;;;;;;19.88;71.43;100714.31;1729453;81;26410;-77
2022/08/05 03:23:42;;;;;;;7.35;6.65;;;;;;;19.84;71.35;100719.42;1745000;80;26011;-77
2022/08/05 03:26:09;;;;;;;8.20;7.40;;;;;;;19.83;71.45;100721.84;1733986;80;27451;-76
2022/08/05 03:28:36;;;;;;;10.05;7.05;;;;;;;19.83;71.58;100716.40;1748696;80;26385;-77
2022/08/05 03:31:04;;;;;;;7.83;6.83;;;;;;;19.85;71.64;100716.14;1736174;81;25792;-77
2022/08/05 03:33:31;;;;;;;15.65;7.83;;;;;;;19.85;71.67;100714.78;1751412;81;25768;-76
2022/08/05 03:35:58;;;;;;;10.80;7.40;;;;;;;19.84;71.65;100715.88;1738887;80;26088;-77
2022/08/05 03:38:25;;;;;;;10.85;7.80;;;;;;;19.84;71.64;100718.59;1753064;80;28274;-78
2022/08/05 03:40:52;;;;;;;8.13;7.33;;;;;;;19.83;71.80;100719.64;1741583;80;25842;-77
2022/08/05 03:43:19;;;;;;;7.65;6.85;;;;;;;19.81;71.98;100717.70;1741711;80;25967;-77
2022/08/05 03:45:46;;;;;;;8.65;7.40;;;;;;;19.79;71.78;100719.32;1744893;80;26462;-77
2022/08/05 03:48:13;;;;;;;8.30;7.50;;;;;;;19.77;71.79;100718.73;1743240;80;26101;-77
2022/08/05 03:50:53;;;;;;;9.80;7.03;;;;;;;19.77;71.86;100717.38;1741815;80;27437;-78
2022/08/05 03:53:45;;;;;;;8.33;7.08;;;;;;;19.79;71.87;100719.32;1735611;81;25954;-76
2022/08/05 03:56:32;;;;;;;8.28;7.37;;;;;;;19.80;71.99;100722.31;1750474;80;25767;-77
2022/08/05 03:59:02;;;;;;;8.63;6.80;;;;;;;19.83;72.12;100711.48;1728557;81;25773;-77
2022/08/05 04:01:32;;;;;;;8.13;7.33;;;;;;;19.83;72.18;100712.32;1741056;80;25925;-76
2022/08/05 04:04:01;;;;;;;9.48;7.10;;;;;;;19.87;72.39;100708.56;1746128;80;27455;-77
2022/08/05 04:06:28;;;;;;;8.90;7.97;;;;;;;19.89;72.42;100709.14;1729265;81;26694;-78
2022/08/05 04:08:55;;;;;;;8.55;7.53;;;;;;;19.91;72.46;100706.48;1736794;81;26547;-78
2022/08/05 04:11:21;;;;;;;9.60;7.55;;;;;;;19.90;72.60;100706.73;1748021;80;25899;-78
2022/08/05 04:13:49;;;;;;;9.50;7.80;;;;;;;19.92;72.85;100699.98;1719171;81;26745;-77
2022/08/05 04:16:15;;;;;;;9.13;7.47;;;;;;;19.93;73.00;100711.13;1739216;80;27443;-78
2022/08/05 04:18:45;;;;;;;10.72;7.25;;;;;;;19.92;73.04;100705.42;1722755;80;25818;-76
2022/08/05 04:21:12;;;;;;;11.97;7.42;;;;;;;19.95;73.16;100702.75;1751468;80;26461;-78
2022/08/05 04:23:38;;;;;;;8.53;6.72;;;;;;;19.99;73.22;100700.63;1710994;82;25759;-77
2022/08/05 04:26:05;;;;;;;9.25;7.67;;;;;;;20.03;73.45;100700.16;1748261;81;25829;-77
2022/08/05 04:28:31;;;;;;;10.38;7.37;;;;;;;20.01;73.63;100700.41;1743097;81;27466;-78
2022/08/05 04:30:59;;;;;;;8.05;7.17;;;;;;;20.04;73.59;100705.33;1740063;81;25806;-79
2022/08/05 04:33:26;;;;;;;11.25;7.45;;;;;;;20.09;73.71;100697.80;1736600;81;25774;-78
2022/08/05 04:35:53;;;;;;;10.08;7.50;;;;;;;20.15;73.85;100699.53;1731939;81;26467;-78
2022/08/05 04:38:19;;;;;;;9.73;8.45;;;;;;;20.17;74.00;100707.73;1735884;81;25954;-77
2022/08/05 04:40:45;;;;;;;8.95;7.15;;;;;;;20.20;74.13;100703.70;1740717;81;27517;-78
2022/08/05 04:43:11;;;;;;;11.95;7.00;;;;;;;20.21;74.21;100704.84;1738795;81;25803;-77
2022/08/05 04:45:38;;;;;;;9.85;7.60;;;;;;;20.27;74.24;100703.05;1717987;81;25532;-77
2022/08/05 04:48:11;;;;;;;9.03;7.78;;;;;;;20.33;74.40;100704.77;1722141;81;25829;-78
2022/08/05 04:50:46;;;;;;;8.45;7.40;;;;;;;20.40;74.47;100707.59;1710227;82;25709;-79
2022/08/05 04:53:15;;;;;;;11.65;7.53;;;;;;;20.47;74.56;100701.46;1718469;81;27463;-78
2022/08/05 04:55:43;;;;;;;8.90;8.10;;;;;;;20.55;74.55;100706.47;1726900;81;25774;-76
2022/08/05 04:58:13;;;;;;;9.03;7.47;;;;;;;20.61;74.59;100701.95;1732506;81;26499;-77
2022/08/05 05:00:40;;;;;;;8.78;7.70;;;;;;;20.61;74.45;100699.23;1729288;81;26581;-77
2022/08/05 05:03:08;;;;;;;10.78;8.03;;;;;;;20.67;74.58;100705.86;1733267;81;25758;-77
2022/08/05 05:05:36;;;;;;;9.03;7.33;;;;;;;20.72;74.60;100704.55;1734019;81;27447;-78
2022/08/05 05:08:07;;;;;;;8.55;7.60;;;;;;;20.76;74.76;100706.25;1736753;81;26507;-77
2022/08/05 05:10:41;;;;;;;10.23;8.08;;;;;;;20.83;74.92;100706.08;1749833;81;25856;-78
2022/08/05 05:13:14;;;;;;;9.95;7.60;;;;;;;20.91;75.01;100701.02;1734749;81;25965;-78
2022/08/05 05:15:43;;;;;;;11.10;8.28;;;;;;;20.99;74.98;100703.83;1712164;81;25825;-77
2022/08/05 05:18:15;;;;;;;7.65;6.95;;;;;;;21.07;75.03;100701.52;1747476;81;27438;-78
2022/08/05 05:20:45;;;;;;;8.55;7.62;;;;;;;21.15;74.83;100704.36;1728399;82;25747;-76
2022/08/05 05:23:13;;;;;;;9.18;7.37;;;;;;;21.24;75.01;100711.82;1731280;81;25874;-78
2022/08/05 05:25:43;;;;;;;9.25;7.17;;;;;;;21.31;74.92;100715.72;1742550;81;25727;-77
2022/08/05 05:28:11;;;;;;;13.25;8.03;;;;;;;21.38;75.20;100719.08;1698771;81;25750;-76
2022/08/05 05:30:39;;;;;;;10.72;7.15;;;;;;;21.44;75.09;100720.25;1742370;80;28256;-78
2022/08/05 05:33:07;;;;;;;12.05;6.92;;;;;;;21.50;74.82;100726.57;1724204;80;26059;-77
2022/08/05 05:35:35;;;;;;;9.60;6.70;;;;;;;21.56;74.77;100721.98;1739621;80;25805;-76
2022/08/05 05:38:03;;;;;;;10.35;7.47;;;;;;;21.65;74.72;100721.83;1738063;80;25832;-77
2022/08/05 05:40:30;;;;;;;9.55;7.50;;;;;;;21.74;74.79;100723.85;1699874;81;26690;-78
2022/08/05 05:42:57;;;;;;;12.03;7.47;;;;;;;21.83;75.09;100724.25;1716807;81;27439;-79
2022/08/05 05:45:24;;;;;;;15.63;7.40;;;;;;;21.89;74.83;100726.77;1737947;80;25847;-77
2022/08/05 05:47:50;;;;;;;8.88;6.72;;;;;;;21.98;74.90;100728.48;1718639;81;25931;-78
2022/08/05 05:50:18;;;;;;;18.02;8.00;;;;;;;22.05;74.78;100725.81;1719023;81;25778;-78
2022/08/05 05:52:47;;;;;;;10.40;6.92;;;;;;;22.14;74.85;100719.34;1707642;81;25957;-78
2022/08/05 05:55:15;;;;;;;13.08;7.42;;;;;;;22.22;74.99;100718.33;1703645;81;28289;-78
2022/08/05 05:57:44;;;;;;;7.78;6.15;;;;;;;22.33;74.90;100712.95;1709752;81;26248;-79
2022/08/05 06:00:17;;;;;;;10.13;7.70;;;;;;;22.41;74.53;100709.76;1746305;80;26092;-78
2022/08/05 06:02:45;;;;;;;10.30;6.83;;;;;;;22.50;74.75;100706.80;1732928;80;25774;-79
2022/08/05 06:05:13;;;;;;;8.85;6.47;;;;;;;22.60;74.67;100705.02;1724622;81;25930;-78
2022/08/05 06:07:41;;;;;;;11.15;5.92;;;;;;;22.70;74.58;100706.98;1735942;81;28091;-77
2022/08/05 06:10:09;;;;;;;9.15;6.90;;;;;;;22.80;74.90;100707.03;1759767;80;25953;-79
2022/08/05 06:12:36;;;;;;;9.88;6.08;;;;;;;22.90;75.00;100712.00;1745049;80;25770;-78
2022/08/05 06:15:05;;;;;;;14.73;6.45;;;;;;;23.01;74.45;100705.52;1751853;80;25740;-79
2022/08/05 06:17:31;;;;;;;10.35;6.58;;;;;;;23.13;74.93;100711.31;1734215;80;26457;-77
2022/08/05 06:19:58;;;;;;;6.80;5.72;;;;;;;23.22;74.20;100700.16;1733745;81;28300;-79
2022/08/05 06:22:28;;;;;;;6.08;5.47;;;;;;;23.28;73.81;100703.17;1715354;81;25736;-79
2022/08/05 06:24:55;;;;;;;6.47;5.87;;;;;;;23.36;73.91;100705.42;1704347;81;26123;-78
2022/08/05 06:27:21;;;;;;;7.97;5.55;;;;;;;23.46;73.34;100700.00;1743652;80;25806;-77
2022/08/05 06:29:47;;;;;;;11.15;6.10;;;;;;;23.53;73.21;100705.48;1716954;81;25889;-79
2022/08/05 06:32:14;;;;;;;9.88;5.70;;;;;;;23.62;73.41;100703.88;1737053;80;27437;-77
2022/08/05 06:34:40;;;;;;;10.40;5.05;;;;;;;23.71;72.99;100700.06;1730420;81;26039;-79
2022/08/05 06:37:07;;;;;;;9.70;5.03;;;;;;;23.81;72.47;100706.91;1729206;81;25897;-78
2022/08/05 06:39:33;;;;;;;9.48;5.28;;;;;;;23.89;72.57;100706.38;1725495;81;25780;-78
2022/08/05 06:42:01;;;;;;;8.00;5.25;;;;;;;24.00;72.07;100702.55;1714930;81;26594;-79
2022/08/05 06:44:29;;;;;;;13.45;6.85;;;;;;;24.07;71.65;100704.52;1704637;81;27468;-79
2022/08/05 06:46:56;;;;;;;7.35;5.65;;;;;;;24.16;72.23;100708.36;1721881;81;26427;-77
2022/08/05 06:49:23;;;;;;;6.05;4.92;;;;;;;24.25;71.29;100707.27;1714468;81;25834;-79
2022/08/05 06:51:49;;;;;;;8.15;5.20;;;;;;;24.32;71.16;100703.14;1730961;81;26620;-79
2022/08/05 06:54:16;;;;;;;7.30;4.45;;;;;;;24.41;71.13;100702.88;1736952;80;25969;-80
2022/08/05 06:56:43;;;;;;;8.25;5.08;;;;;;;24.53;70.88;100695.72;1741892;80;28223;-77
2022/08/05 06:59:13;;;;;;;6.55;4.42;;;;;;;24.62;70.39;100696.81;1746572;80;26575;-78
2022/08/05 07:01:37;;;;;;;7.12;4.65;;;;;;;24.70;69.54;100692.13;1733328;80;26488;-78
2022/08/05 07:04:04;;;;;;;7.53;4.85;;;;;;;24.80;69.08;100688.59;1735354;80;25882;-78
2022/08/05 07:06:30;;;;;;;9.58;3.80;;;;;;;24.88;69.27;100686.09;1731584;80;25717;-78
2022/08/05 07:08:56;;;;;;;7.08;4.42;;;;;;;24.98;68.67;100692.91;1734280;80;27510;-78
2022/08/05 07:11:23;;;;;;;7.08;4.22;;;;;;;25.06;68.77;100684.09;1729348;80;26502;-80
2022/08/05 07:16:49;;;;;;;7.50;4.40;;;;;;;25.24;67.99;100696.38;1731486;80;26634;-78
2022/08/05 07:19:21;;;;;;;10.18;3.90;;;;;;;25.34;67.41;100696.34;1731065;80;25709;-79
2022/08/05 07:21:48;;;;;;;6.12;4.00;;;;;;;25.44;66.62;100694.13;1743347;81;28257;-79
2022/08/05 07:24:16;;;;;;;4.67;3.72;;;;;;;25.52;66.63;100694.34;1736289;81;26155;-80
2022/08/05 07:26:44;;;;;;;10.08;3.70;;;;;;;25.61;66.03;100690.45;1713284;81;25991;-78
2022/08/05 07:29:11;;;;;;;5.45;3.75;;;;;;;25.70;65.79;100688.77;1748773;80;26821;-79
2022/08/05 07:31:38;;;;;;;7.37;4.35;;;;;;;25.77;65.22;100690.07;1734540;81;25713;-80
2022/08/05 07:34:05;;;;;;;7.10;3.17;;;;;;;25.84;64.43;100691.13;1737822;80;27462;-81
2022/08/05 07:36:32;;;;;;;4.97;3.72;;;;;;;25.90;64.25;100689.98;1732360;80;25794;-78
2022/08/05 07:39:03;;;;;;;8.90;3.95;;;;;;;25.95;64.09;100695.45;1736962;80;25822;-77
2022/08/05 07:41:29;;;;;;;10.45;4.12;;;;;;;26.01;63.73;100688.26;1727579;80;26549;-79
2022/08/05 07:43:57;;;;;;;5.20;4.05;;;;;;;26.07;63.30;100695.89;1732767;80;26501;-79
2022/08/05 07:46:30;;;;;;;4.83;3.55;;;;;;;26.13;63.24;100689.85;1718495;81;28266;-79
2022/08/05 07:48:59;;;;;;;4.70;3.17;;;;;;;26.18;63.07;100687.87;1705639;81;25808;-79
2022/08/05 07:51:26;;;;;;;6.90;3.30;;;;;;;26.24;63.26;100686.72;1714508;81;25722;-78
2022/08/05 07:53:52;;;;;;;8.60;3.85;;;;;;;26.33;63.65;100685.55;1720238;81;26023;-79
2022/08/05 07:56:18;;;;;;;6.75;3.55;;;;;;;26.41;62.65;100685.73;1749453;80;26500;-78
2022/08/05 07:58:45;;;;;;;9.28;5.20;;;;;;;26.49;62.62;100688.43;1748201;80;27439;-78
2022/08/05 08:01:11;;;;;;;8.98;4.83;;;;;;;26.54;62.24;100680.94;1735958;80;26007;-79
2022/08/05 08:03:38;;;;;;;7.35;5.08;;;;;;;26.64;62.61;100684.16;1710469;81;25925;-77
2022/08/05 08:06:04;;;;;;;5.55;3.47;;;;;;;26.73;62.12;100687.37;1729104;81;26521;-77
2022/08/05 08:08:31;;;;;;;6.90;3.85;;;;;;;26.83;62.14;100685.08;1724704;81;26372;-79
2022/08/05 08:10:57;;;;;;;23.92;6.80;;;;;;;26.94;62.10;100691.28;1732702;80;28272;-79
2022/08/05 08:13:23;;;;;;;7.28;3.77;;;;;;;27.01;61.37;100684.88;1736424;80;25884;-78
2022/08/05 08:15:49;;;;;;;9.65;3.33;;;;;;;27.09;61.01;100687.80;1743664;80;26268;-79
2022/08/05 08:18:16;;;;;;;11.03;4.08;;;;;;;27.18;60.69;100688.77;1739882;80;26481;-81
2022/08/05 08:20:42;;;;;;;7.12;5.05;;;;;;;27.26;60.46;100688.69;1737290;80;25390;-78
2022/08/05 08:23:09;;;;;;;6.35;3.70;;;;;;;27.35;60.33;100684.20;1726714;80;27465;-79
2022/08/05 08:25:35;;;;;;;4.42;3.17;;;;;;;27.43;60.51;100685.73;1735393;80;25786;-79
2022/08/05 08:28:02;;;;;;;4.87;3.40;;;;;;;27.50;59.82;100681.25;1734587;80;25725;-78
2022/08/05 08:30:29;;;;;;;8.28;3.87;;;;;;;27.58;60.17;100686.08;1734040;80;26049;-79
2022/08/05 08:32:55;;;;;;;6.50;3.62;;;;;;;27.65;60.47;100687.09;1741265;80;25810;-78
2022/08/05 08:35:21;;;;;;;4.40;3.50;;;;;;;27.71;60.37;100683.96;1736545;80;28304;-78
2022/08/05 08:37:47;;;;;;;8.48;4.25;;;;;;;27.76;59.23;100682.49;1736041;80;25727;-78
2022/08/05 08:40:14;;;;;;;5.65;3.58;;;;;;;27.81;58.83;100682.98;1748766;81;25835;-77
2022/08/05 08:42:44;;;;;;;8.05;3.50;;;;;;;27.85;58.43;100683.46;1716579;82;27025;-79
2022/08/05 08:45:11;;;;;;;7.62;3.55;;;;;;;27.89;58.11;100683.67;1724542;81;25894;-79
2022/08/05 08:47:38;;;;;;;4.42;3.58;;;;;;;27.91;57.46;100681.44;1735929;81;28240;-78
2022/08/05 08:50:07;;;;;;;4.85;3.45;;;;;;;27.93;57.53;100683.36;1741984;81;25831;-79
2022/08/05 08:52:36;;;;;;;3.90;3.47;;;;;;;27.96;57.88;100678.06;1736252;81;25334;-78
2022/08/05 08:55:03;;;;;;;6.75;4.03;;;;;;;28.03;57.77;100674.41;1737899;81;25828;-79
2022/08/05 08:57:30;;;;;;;9.58;3.67;;;;;;;28.11;58.25;100674.27;1743793;81;25780;-78
2022/08/05 08:59:57;;;;;;;4.87;3.22;;;;;;;28.19;58.25;100674.95;1735909;81;27512;-78
2022/08/05 09:02:25;;;;;;;3.92;3.17;;;;;;;28.26;57.99;100671.25;1749466;81;44660;-80
2022/08/05 09:04:51;;;;;;;5.30;3.95;;;;;;;28.32;57.91;100676.10;1734543;80;25812;-79
2022/08/05 09:07:18;;;;;;;4.62;3.52;;;;;;;28.36;57.73;100673.83;1727883;81;25776;-79
2022/08/05 09:09:44;;;;;;;3.30;3.00;;;;;;;28.41;57.45;100673.74;1738518;80;26479;-79
2022/08/05 09:12:11;;;;;;;6.20;3.77;;;;;;;28.49;56.99;100675.80;1732601;81;28314;-78
2022/08/05 09:14:38;;;;;;;5.50;2.62;;;;;;;28.52;56.17;100672.45;1737068;81;25758;-79
2022/08/05 09:17:08;;;;;;;6.33;3.42;;;;;;;28.54;56.10;100674.89;1729090;81;25959;-78
2022/08/05 09:19:36;;;;;;;3.52;3.15;;;;;;;28.60;56.62;100669.01;1731147;81;26412;-79
2022/08/05 09:22:04;;;;;;;3.33;2.77;;;;;;;28.65;55.57;100666.72;1731401;81;25883;-78
2022/08/05 09:24:30;;;;;;;8.78;3.80;;;;;;;28.66;55.03;100666.41;1731092;81;27454;-80
2022/08/05 09:26:58;;;;;;;8.13;3.37;;;;;;;28.67;55.63;100663.92;1731215;81;25900;-80
2022/08/05 09:29:41;;;;;;;5.12;2.98;;;;;;;28.70;54.91;100656.98;1741354;81;25891;-78
2022/08/05 09:32:09;;;;;;;5.65;3.20;;;;;;;28.73;55.41;100657.19;1740559;81;25779;-79
2022/08/05 09:34:57;;;;;;;8.85;3.27;;;;;;;28.80;54.94;100649.89;1736354;81;25793;-79
2022/08/05 09:37:25;;;;;;;3.50;3.20;;;;;;;28.81;54.83;100645.98;1734903;81;27531;-78
2022/08/05 09:39:52;;;;;;;5.95;3.10;;;;;;;28.85;55.13;100646.45;1745927;81;25927;-78
2022/08/05 09:42:22;;;;;;;3.83;3.10;;;;;;;28.91;54.92;100643.84;1741751;81;25803;-78
2022/08/05 09:44:53;;;;;;;6.87;2.90;;;;;;;28.96;54.15;100644.30;1708610;81;25759;-79
2022/08/05 09:47:24;;;;;;;3.85;3.12;;;;;;;28.97;54.25;100641.27;1724711;81;26057;-80
2022/08/05 09:49:54;;;;;;;9.60;3.02;;;;;;;28.99;54.19;100636.25;1722211;81;28285;-79
2022/08/05 09:52:30;;;;;;;;;;;;;;;29.04;54.11;100644.16;1735588;81;25979;-78
2022/08/05 09:55:07;;;;;;;6.12;3.02;;;;;;;29.06;53.44;100638.59;1730414;81;25741;-77
2022/08/05 09:57:41;;;;;;;4.00;3.37;;;;;;;29.05;52.90;100641.09;1712863;82;25784;-78
2022/08/05 10:00:13;;;;;;;6.22;2.98;;;;;;;29.06;52.84;100631.70;1721085;81;25950;-78
2022/08/05 10:02:46;;;;;;;7.70;3.00;;;;;;;29.08;53.08;100628.07;1734417;81;27437;-80
2022/08/05 10:05:19;;;;;;;4.90;3.17;;;;;;;29.12;53.07;100635.98;1725631;81;25774;-79
2022/08/05 10:08:00;;;;;;;7.50;2.98;;;;;;;29.17;52.48;100633.71;1725459;81;25275;-79
2022/08/05 10:10:44;;;;;;;3.50;2.90;;;;;;;29.22;52.72;100634.95;1741717;81;25783;-77
2022/08/05 10:13:11;;;;;;;7.85;3.00;;;;;;;29.27;52.43;100630.16;1699373;82;26614;-78
2022/08/05 10:15:39;;;;;;;5.40;3.00;;;;;;;29.33;52.64;100627.53;1716214;81;27468;-78
2022/08/05 10:18:15;;;;;;;4.37;2.80;;;;;;;29.38;52.51;100627.98;1732375;80;25849;-77
2022/08/05 10:20:49;;;;;;;4.42;3.10;;;;;;;29.40;52.58;100618.83;1735949;80;25893;-78
2022/08/05 10:23:28;;;;;;;2.98;2.52;;;;;;;29.45;52.02;100622.28;1733995;80;25858;-78
2022/08/05 10:25:57;;;;;;;5.22;3.10;;;;;;;29.51;52.86;100620.23;1747892;80;25791;-77
2022/08/05 10:28:24;;;;;;;3.37;3.05;;;;;;;29.58;52.55;100618.66;1746712;80;27459;-77
2022/08/05 10:30:52;;;;;;;3.72;2.50;;;;;;;29.63;51.88;100608.07;1717561;81;25831;-77
2022/08/05 10:33:22;;;;;;;3.70;2.50;;;;;;;29.65;51.60;100610.77;1750685;80;26436;-78
2022/08/05 10:35:50;;;;;;;3.47;2.62;;;;;;;29.64;51.22;100611.89;1734113;81;26390;-78
2022/08/05 10:38:21;;;;;;;2.65;2.40;;;;;;;29.66;51.51;100611.59;1736358;81;25794;-79
2022/08/05 10:41:12;;;;;;;3.33;2.42;;;;;;;29.71;50.79;100596.27;1736149;81;27461;-78
2022/08/05 10:43:56;;;;;;;3.95;2.42;;;;;;;29.73;49.71;100592.63;1724796;81;25851;-79
2022/08/05 10:46:22;;;;;;;3.00;2.35;;;;;;;29.70;49.70;100585.78;1726881;81;26502;-77
2022/08/05 10:48:55;;;;;;;5.80;2.40;;;;;;;29.73;50.21;100582.96;1733000;81;25854;-78
2022/08/05 10:51:23;;;;;;;5.15;2.35;;;;;;;29.81;50.39;100586.96;1721683;81;26645;-78
2022/08/05 10:53:58;;;;;;;4.83;3.05;;;;;;;29.86;49.75;100592.34;1727864;81;27519;-78
2022/08/05 10:56:33;;;;;;;7.03;3.22;;;;;;;29.89;49.86;100586.20;1742170;80;25294;-77
2022/08/05 10:59:05;;;;;;;4.47;3.00;;;;;;;29.93;49.99;100589.40;1711127;81;25759;-78
2022/08/05 11:01:38;;;;;;;2.77;2.52;;;;;;;29.97;49.43;100588.19;1733277;81;25794;-78
2022/08/05 11:04:22;;;;;;;4.30;2.77;;;;;;;30.02;49.67;100587.52;1743433;81;25774;-79
2022/08/05 11:07:11;;;;;;;5.47;3.15;;;;;;;30.06;49.60;100589.89;1732413;81;27450;-78
2022/08/05 11:09:52;;;;;;;3.30;3.00;;;;;;;30.12;49.61;100590.56;1727316;81;26019;-78
2022/08/05 11:12:41;;;;;;;4.67;2.80;;;;;;;30.16;49.90;100588.79;1737012;81;25795;-78
2022/08/05 11:15:27;;;;;;;5.45;2.75;;;;;;;30.20;49.79;100580.11;1735126;81;25800;-79
2022/08/05 11:18:08;;;;;;;3.80;2.90;;;;;;;30.27;49.72;100583.25;1725106;81;25774;-78
2022/08/05 11:20:42;;;;;;;3.35;3.05;;;;;;;30.31;50.29;100577.36;1721857;81;27465;-78
2022/08/05 11:23:30;;;;;;;4.15;3.00;;;;;;;30.36;50.10;100575.84;1727574;81;25947;-78
2022/08/05 11:26:13;;;;;;;6.92;2.98;;;;;;;30.42;49.47;100569.04;1727668;81;26522;-78
2022/08/05 11:28:43;;;;;;;3.42;3.08;;;;;;;30.42;50.25;100574.02;1739618;80;25785;-79
2022/08/05 11:31:15;;;;;;;4.90;3.10;;;;;;;30.48;49.80;100577.44;1735708;80;25886;-79
2022/08/05 11:33:53;;;;;;;4.28;2.58;;;;;;;30.51;49.66;100580.95;1733726;81;28269;-78
2022/08/05 11:36:43;;;;;;;3.42;3.12;;;;;;;30.55;49.65;100575.59;1738545;81;25715;-78
2022/08/05 11:39:13;;;;;;;3.20;2.90;;;;;;;30.60;50.32;100574.08;1738311;80;25799;-78
2022/08/05 11:41:41;;;;;;;;;;;;;;;30.66;50.67;100574.17;1722608;81;25840;-78